EFET

Enontekio Airport

Enontekio, Finland
METAR EFET 191950Z AUTO 08004KT 020V130 9999 -RA BKN064 12/10 Q0990
Observed Flight Rules
Jun-19 @ 19:50 UTC (26 minutes ago) Visual Flight Rules
Wind Visibility Clouds Conditions
80° at 4 knots 10,000+ meters
  • Broken at 6,400' AGL
  • Light Rain
Temperatures Readings
Current 12°C / 54°F
Dewpoint 10°C / 50°F
Humidity 88%
Altimeter 29.23" Hg
Pressure 990 hPa
Elevation 306
METAR EFET 191950Z AUTO 08004KT 020V130 9999 -RA BKN064 12/10 Q0990
Observed Flight Rules
Jun-19 @ 19:50 UTC
(26 minutes ago)
VFR
Wind Visibility
80° at 4 knots 10,000+ meters
Clouds
  • Broken at 6,400' AGL
Conditions
  • Light Rain
Temperature Dewpoint
12°C / 54°F 10°C / 50°F
Humidity Altimeter Pressure
88% 29.23" Hg 990 hPa